sensor_id;sensor_type;location;lat;lon;timestamp;pressure;altitude;pressure_sealevel;temperature;humidity
27437;BME280;14886;51.586;6.722;2024-02-21T01:15:19;1020.5;;;8.9;85.7
27437;BME280;14886;51.586;6.722;2024-02-21T01:20:19;1020.4;;;9.0;85.5
27437;BME280;14886;51.586;6.722;2024-02-21T01:21:20;1020.4;;;8.9;85.7
27437;BME280;14886;51.586;6.722;2024-02-21T01:26:20;1020.4;;;9.0;85.5
27437;BME280;14886;51.586;6.722;2024-02-21T01:28:20;1020.4;;;8.9;85.5
27437;BME280;14886;51.586;6.722;2024-02-21T01:35:20;1020.3;;;8.8;86.0
27437;BME280;14886;51.586;6.722;2024-02-21T01:36:20;1020.3;;;8.9;86.0
27437;BME280;14886;51.586;6.722;2024-02-21T01:43:21;1020.2;;;8.8;85.9
27437;BME280;14886;51.586;6.722;2024-02-21T01:55:22;1020.3;;;8.7;86.2
27437;BME280;14886;51.586;6.722;2024-02-21T02:01:22;1020.2;;;8.8;86.3
27437;BME280;14886;51.586;6.722;2024-02-21T02:02:22;1020.1;;;8.7;86.4
27437;BME280;14886;51.586;6.722;2024-02-21T02:05:23;1020.1;;;8.8;86.3
27437;BME280;14886;51.586;6.722;2024-02-21T02:12:23;1019.9;;;8.7;86.3
27437;BME280;14886;51.586;6.722;2024-02-21T02:13:23;1019.9;;;8.8;86.2
27437;BME280;14886;51.586;6.722;2024-02-21T02:15:23;1019.8;;;8.7;86.2
27437;BME280;14886;51.586;6.722;2024-02-21T02:32:25;1019.4;;;8.6;86.2
27437;BME280;14886;51.586;6.722;2024-02-21T02:44:26;1019.4;;;8.7;86.2
27437;BME280;14886;51.586;6.722;2024-02-21T02:45:26;1019.4;;;8.6;86.2
27437;BME280;14886;51.586;6.722;2024-02-21T02:47:26;1019.5;;;8.7;86.1
27437;BME280;14886;51.586;6.722;2024-02-21T02:48:26;1019.5;;;8.6;86.2
27437;BME280;14886;51.586;6.722;2024-02-21T02:50:26;1019.6;;;8.7;86.1
27437;BME280;14886;51.586;6.722;2024-02-21T03:11:28;1019.3;;;8.8;85.9
27437;BME280;14886;51.586;6.722;2024-02-21T03:44:30;1019.1;;;8.9;85.4
27437;BME280;14886;51.586;6.722;2024-02-21T03:45:31;1019.1;;;8.8;85.6
27437;BME280;14886;51.586;6.722;2024-02-21T03:55:31;1019.2;;;8.9;85.3
27437;BME280;14886;51.586;6.722;2024-02-21T03:58:32;1019.1;;;8.8;85.3
27437;BME280;14886;51.586;6.722;2024-02-21T03:59:32;1019.1;;;8.9;85.3
27437;BME280;14886;51.586;6.722;2024-02-21T04:01:32;1019.1;;;8.8;85.2
27437;BME280;14886;51.586;6.722;2024-02-21T04:03:32;1019.1;;;8.9;85.1
27437;BME280;14886;51.586;6.722;2024-02-21T04:09:33;1019.0;;;8.8;84.9
27437;BME280;14886;51.586;6.722;2024-02-21T04:10:33;1019.0;;;8.9;84.7
27437;BME280;14886;51.586;6.722;2024-02-21T04:47:35;1018.8;;;8.8;84.6
27437;BME280;14886;51.586;6.722;2024-02-21T04:48:35;1018.8;;;8.9;84.7
27437;BME280;14886;51.586;6.722;2024-02-21T04:54:36;1018.8;;;8.8;84.8
27437;BME280;14886;51.586;6.722;2024-02-21T04:56:36;1018.7;;;8.9;84.6
27437;BME280;14886;51.586;6.722;2024-02-21T04:59:36;1018.8;;;8.8;84.6
27437;BME280;14886;51.586;6.722;2024-02-21T05:00:36;1018.8;;;8.9;84.5
27437;BME280;14886;51.586;6.722;2024-02-21T05:02:37;1018.8;;;8.8;84.7
27437;BME280;14886;51.586;6.722;2024-02-21T05:20:38;1018.6;;;8.9;84.0
27437;BME280;14886;51.586;6.722;2024-02-21T05:21:38;1018.7;;;8.8;84.0
27437;BME280;14886;51.586;6.722;2024-02-21T05:22:38;1018.6;;;8.9;84.1
27437;BME280;14886;51.586;6.722;2024-02-21T05:23:38;1018.6;;;8.8;84.2
27437;BME280;14886;51.586;6.722;2024-02-21T05:30:39;1018.5;;;8.9;83.6
27437;BME280;14886;51.586;6.722;2024-02-21T05:31:43;1018.4;;;8.8;83.6
27437;BME280;14886;51.586;6.722;2024-02-21T05:33:39;1018.4;;;8.9;83.4
27437;BME280;14886;51.586;6.722;2024-02-21T06:17:43;1017.8;;;9.0;82.6
27437;BME280;14886;51.586;6.722;2024-02-21T06:19:43;1017.8;;;8.9;82.7
27437;BME280;14886;51.586;6.722;2024-02-21T06:20:43;1017.8;;;9.0;82.7
27437;BME280;14886;51.586;6.722;2024-02-21T06:21:43;1017.8;;;8.9;82.9
27437;BME280;14886;51.586;6.722;2024-02-21T06:30:44;1017.8;;;9.0;82.8
27437;BME280;14886;51.586;6.722;2024-02-21T06:31:44;1017.7;;;8.9;82.8
27437;BME280;14886;51.586;6.722;2024-02-21T06:47:45;1017.5;;;8.8;83.4
27437;BME280;14886;51.586;6.722;2024-02-21T06:48:45;1017.6;;;8.9;83.3
27437;BME280;14886;51.586;6.722;2024-02-21T06:51:45;1017.6;;;8.8;83.6
27437;BME280;14886;51.586;6.722;2024-02-21T06:54:46;1017.6;;;8.9;83.3
27437;BME280;14886;51.586;6.722;2024-02-21T07:00:46;1017.6;;;8.8;83.6
27437;BME280;14886;51.586;6.722;2024-02-21T07:01:47;1017.6;;;8.9;83.6
27437;BME280;14886;51.586;6.722;2024-02-21T07:02:46;1017.6;;;8.8;83.8
27437;BME280;14886;51.586;6.722;2024-02-21T07:05:46;1017.6;;;8.9;83.9
27437;BME280;14886;51.586;6.722;2024-02-21T07:06:49;1017.6;;;8.8;83.9
27437;BME280;14886;51.586;6.722;2024-02-21T07:08:47;1017.6;;;8.9;83.8
27437;BME280;14886;51.586;6.722;2024-02-21T07:20:49;1017.5;;;9.0;83.5
27437;BME280;14886;51.586;6.722;2024-02-21T07:36:49;1017.4;;;9.1;83.3
27437;BME280;14886;51.586;6.722;2024-02-21T07:37:50;1017.4;;;9.0;83.1
27437;BME280;14886;51.586;6.722;2024-02-21T07:43:49;1017.3;;;9.1;83.4
27437;BME280;14886;51.586;6.722;2024-02-21T08:04:51;1017.1;;;9.2;82.7
27437;BME280;14886;51.586;6.722;2024-02-21T08:05:51;1017.1;;;9.1;82.5
27437;BME280;14886;51.586;6.722;2024-02-21T08:06:51;1017.1;;;9.2;82.5
27437;BME280;14886;51.586;6.722;2024-02-21T08:09:51;1017.0;;;9.3;82.7
27437;BME280;14886;51.586;6.722;2024-02-21T08:12:52;1017.0;;;9.2;82.4
27437;BME280;14886;51.586;6.722;2024-02-21T08:16:52;1016.9;;;9.3;82.4
27437;BME280;14886;51.586;6.722;2024-02-21T08:19:52;1016.9;;;9.2;82.3
27437;BME280;14886;51.586;6.722;2024-02-21T08:22:52;1016.7;;;9.3;82.2
27437;BME280;14886;51.586;6.722;2024-02-21T08:25:53;1016.6;;;9.2;82.1
27437;BME280;14886;51.586;6.722;2024-02-21T08:27:54;1016.6;;;9.3;82.1
27437;BME280;14886;51.586;6.722;2024-02-21T08:28:53;1016.6;;;9.2;81.9
27437;BME280;14886;51.586;6.722;2024-02-21T08:29:53;1016.6;;;9.3;81.9
27437;BME280;14886;51.586;6.722;2024-02-21T08:31:53;1016.6;;;9.4;81.8
27437;BME280;14886;51.586;6.722;2024-02-21T08:33:53;1016.5;;;9.3;81.5
27437;BME280;14886;51.586;6.722;2024-02-21T08:34:53;1016.5;;;9.4;81.5
27437;BME280;14886;51.586;6.722;2024-02-21T08:35:54;1016.5;;;9.3;81.4
27437;BME280;14886;51.586;6.722;2024-02-21T08:37:54;1016.5;;;9.4;81.3
27437;BME280;14886;51.586;6.722;2024-02-21T08:42:54;1016.5;;;9.5;80.9
27437;BME280;14886;51.586;6.722;2024-02-21T08:44:54;1016.5;;;9.6;80.6
27437;BME280;14886;51.586;6.722;2024-02-21T08:48:24;1016.5;;;9.7;80.4
27437;BME280;14886;51.586;6.722;2024-02-21T08:49:55;1016.5;;;9.8;80.2
27437;BME280;14886;51.586;6.722;2024-02-21T08:50:55;1016.4;;;9.7;80.4
27437;BME280;14886;51.586;6.722;2024-02-21T08:51:55;1016.4;;;9.6;80.3
27437;BME280;14886;51.586;6.722;2024-02-21T08:52:55;1016.4;;;9.7;80.2
27437;BME280;14886;51.586;6.722;2024-02-21T08:54:55;1016.4;;;9.8;80.3
27437;BME280;14886;51.586;6.722;2024-02-21T08:55:55;1016.4;;;9.7;80.3
27437;BME280;14886;51.586;6.722;2024-02-21T08:57:55;1016.4;;;9.8;80.3
27437;BME280;14886;51.586;6.722;2024-02-21T08:59:55;1016.4;;;9.7;80.5
27437;BME280;14886;51.586;6.722;2024-02-21T09:00:56;1016.3;;;9.8;80.6
27437;BME280;14886;51.586;6.722;2024-02-21T09:01:56;1016.3;;;9.7;80.8
27437;BME280;14886;51.586;6.722;2024-02-21T09:08:56;1016.3;;;9.6;81.4
27437;BME280;14886;51.586;6.722;2024-02-21T09:09:56;1016.3;;;9.7;81.4
27437;BME280;14886;51.586;6.722;2024-02-21T09:10:57;1016.3;;;9.6;81.6
27437;BME280;14886;51.586;6.722;2024-02-21T09:13:57;1016.2;;;9.4;82.0
27437;BME280;14886;51.586;6.722;2024-02-21T09:14:57;1016.3;;;9.5;81.9
27437;BME280;14886;51.586;6.722;2024-02-21T09:16:57;1016.2;;;9.4;82.1
27437;BME280;14886;51.586;6.722;2024-02-21T09:17:57;1016.3;;;9.5;82.1
27437;BME280;14886;51.586;6.722;2024-02-21T09:18:57;1016.3;;;9.4;82.1
27437;BME280;14886;51.586;6.722;2024-02-21T09:22:57;1016.1;;;9.3;82.2
27437;BME280;14886;51.586;6.722;2024-02-21T09:24:58;1016.1;;;9.4;82.0
27437;BME280;14886;51.586;6.722;2024-02-21T09:28:58;1016.1;;;9.5;81.9
27437;BME280;14886;51.586;6.722;2024-02-21T09:29:58;1016.0;;;9.6;81.9
27437;BME280;14886;51.586;6.722;2024-02-21T09:30:58;1016.0;;;9.4;81.9
27437;BME280;14886;51.586;6.722;2024-02-21T09:32:58;1016.0;;;9.5;81.7
27437;BME280;14886;51.586;6.722;2024-02-21T09:35:57;1016.0;;;9.5;80.9
27437;BME280;14886;51.586;6.722;2024-02-21T09:36:59;1016.0;;;9.4;80.9
27437;BME280;14886;51.586;6.722;2024-02-21T09:38:59;1016.0;;;9.5;80.7
27437;BME280;14886;51.586;6.722;2024-02-21T09:39:59;1016.0;;;9.6;80.7
27437;BME280;14886;51.586;6.722;2024-02-21T09:42:01;1016.0;;;9.4;80.8
27437;BME280;14886;51.586;6.722;2024-02-21T09:43:59;1016.0;;;9.5;80.6
27437;BME280;14886;51.586;6.722;2024-02-21T09:47:02;1016.0;;;9.6;80.5
27437;BME280;14886;51.586;6.722;2024-02-21T09:49:04;1016.0;;;9.5;80.3
27437;BME280;14886;51.586;6.722;2024-02-21T09:52:00;1016.0;;;9.6;80.2
27437;BME280;14886;51.586;6.722;2024-02-21T09:54:00;1016.0;;;9.5;80.3
27437;BME280;14886;51.586;6.722;2024-02-21T09:57:00;1016.0;;;9.3;81.0
27437;BME280;14886;51.586;6.722;2024-02-21T10:02:01;1015.9;;;9.2;80.8
27437;BME280;14886;51.586;6.722;2024-02-21T10:03:01;1015.9;;;9.3;80.9
27437;BME280;14886;51.586;6.722;2024-02-21T10:06:01;1015.9;;;9.2;80.9
27437;BME280;14886;51.586;6.722;2024-02-21T10:09:01;1015.9;;;9.1;81.6
27437;BME280;14886;51.586;6.722;2024-02-21T10:10:01;1015.9;;;9.2;81.6
27437;BME280;14886;51.586;6.722;2024-02-21T10:12:09;1015.9;;;9.4;81.3
27437;BME280;14886;51.586;6.722;2024-02-21T10:15:02;1015.9;;;9.3;80.9
27437;BME280;14886;51.586;6.722;2024-02-21T10:16:03;1015.8;;;9.2;80.9
27437;BME280;14886;51.586;6.722;2024-02-21T10:18:02;1015.8;;;9.3;80.9
27437;BME280;14886;51.586;6.722;2024-02-21T10:21:03;1015.7;;;9.4;80.6
27437;BME280;14886;51.586;6.722;2024-02-21T10:29:03;1015.5;;;9.3;80.5
27437;BME280;14886;51.586;6.722;2024-02-21T10:30:03;1015.5;;;9.4;80.4
27437;BME280;14886;51.586;6.722;2024-02-21T10:31:03;1015.5;;;9.5;80.4
27437;BME280;14886;51.586;6.722;2024-02-21T10:34:03;1015.4;;;9.4;80.2
27437;BME280;14886;51.586;6.722;2024-02-21T10:35:04;1015.4;;;9.5;79.9
27437;BME280;14886;51.586;6.722;2024-02-21T10:36:07;1015.4;;;9.4;79.9
27437;BME280;14886;51.586;6.722;2024-02-21T10:41:04;1015.3;;;9.5;79.7
27437;BME280;14886;51.586;6.722;2024-02-21T10:42:04;1015.3;;;9.4;79.8
27437;BME280;14886;51.586;6.722;2024-02-21T10:43:04;1015.3;;;9.6;79.8
27437;BME280;14886;51.586;6.722;2024-02-21T10:44:04;1015.3;;;9.7;79.8
27437;BME280;14886;51.586;6.722;2024-02-21T10:45:05;1015.2;;;9.6;79.6
27437;BME280;14886;51.586;6.722;2024-02-21T10:48:08;1015.2;;;9.7;79.1
27437;BME280;14886;51.586;6.722;2024-02-21T10:49:07;1015.1;;;9.6;79.0
27437;BME280;14886;51.586;6.722;2024-02-21T10:50:05;1015.1;;;9.7;78.8
27437;BME280;14886;51.586;6.722;2024-02-21T10:52:06;1015.1;;;9.6;78.3
27437;BME280;14886;51.586;6.722;2024-02-21T10:54:09;1015.0;;;9.7;78.0
27437;BME280;14886;51.586;6.722;2024-02-21T10:57:05;1014.9;;;9.8;77.9
27437;BME280;14886;51.586;6.722;2024-02-21T10:58:05;1014.8;;;9.9;77.8
27437;BME280;14886;51.586;6.722;2024-02-21T11:00:06;1014.7;;;9.8;77.3
27437;BME280;14886;51.586;6.722;2024-02-21T11:01:05;1014.6;;;9.9;77.2
27437;BME280;14886;51.586;6.722;2024-02-21T11:03:05;1014.6;;;10.0;76.9
27437;BME280;14886;51.586;6.722;2024-02-21T11:04:06;1014.6;;;9.9;76.7
27437;BME280;14886;51.586;6.722;2024-02-21T11:05:06;1014.6;;;10.0;76.3
27437;BME280;14886;51.586;6.722;2024-02-21T11:07:06;1014.5;;;9.9;76.1
27437;BME280;14886;51.586;6.722;2024-02-21T11:08:06;1014.5;;;10.0;75.9
27437;BME280;14886;51.586;6.722;2024-02-21T11:09:06;1014.5;;;10.2;75.6
27437;BME280;14886;51.586;6.722;2024-02-21T11:10:19;1014.5;;;10.4;75.4
27437;BME280;14886;51.586;6.722;2024-02-21T11:11:06;1014.5;;;10.5;75.3
27437;BME280;14886;51.586;6.722;2024-02-21T11:12:06;1014.4;;;10.4;75.1
27437;BME280;14886;51.586;6.722;2024-02-21T11:13:06;1014.4;;;10.3;75.2
27437;BME280;14886;51.586;6.722;2024-02-21T11:14:07;1014.3;;;10.2;75.1
27437;BME280;14886;51.586;6.722;2024-02-21T11:18:07;1014.2;;;10.3;75.1
27437;BME280;14886;51.586;6.722;2024-02-21T11:20:10;1014.1;;;10.2;75.0
27437;BME280;14886;51.586;6.722;2024-02-21T11:22:13;1014.0;;;10.1;75.2
27437;BME280;14886;51.586;6.722;2024-02-21T11:25:07;1013.9;;;10.2;74.8
27437;BME280;14886;51.586;6.722;2024-02-21T11:26:08;1013.9;;;10.3;74.9
27437;BME280;14886;51.586;6.722;2024-02-21T11:27:08;1013.9;;;10.2;74.7
27437;BME280;14886;51.586;6.722;2024-02-21T11:29:07;1013.8;;;10.3;74.8
27437;BME280;14886;51.586;6.722;2024-02-21T11:30:11;1013.8;;;10.2;74.9
27437;BME280;14886;51.586;6.722;2024-02-21T11:31:08;1013.7;;;10.3;74.7
27437;BME280;14886;51.586;6.722;2024-02-21T11:32:09;1013.7;;;10.2;74.8
27437;BME280;14886;51.586;6.722;2024-02-21T11:33:08;1013.7;;;10.3;74.7
27437;BME280;14886;51.586;6.722;2024-02-21T11:37:15;1013.6;;;10.4;74.7
27437;BME280;14886;51.586;6.722;2024-02-21T11:38:09;1013.5;;;10.3;74.7
27437;BME280;14886;51.586;6.722;2024-02-21T11:41:08;1013.5;;;10.4;74.5
27437;BME280;14886;51.586;6.722;2024-02-21T11:42:09;1013.5;;;10.5;74.3
27437;BME280;14886;51.586;6.722;2024-02-21T11:45:09;1013.3;;;10.4;74.4
27437;BME280;14886;51.586;6.722;2024-02-21T11:48:09;1013.2;;;10.6;74.3
27437;BME280;14886;51.586;6.722;2024-02-21T11:50:09;1013.2;;;10.5;74.3
27437;BME280;14886;51.586;6.722;2024-02-21T11:51:09;1013.1;;;10.4;74.3
27437;BME280;14886;51.586;6.722;2024-02-21T11:52:09;1013.1;;;10.6;74.1
27437;BME280;14886;51.586;6.722;2024-02-21T11:55:10;1012.9;;;10.7;74.0
27437;BME280;14886;51.586;6.722;2024-02-21T11:56:10;1012.8;;;10.5;74.2
27437;BME280;14886;51.586;6.722;2024-02-21T11:57:10;1012.7;;;10.4;74.3
27437;BME280;14886;51.586;6.722;2024-02-21T11:58:10;1012.7;;;10.5;74.2
27437;BME280;14886;51.586;6.722;2024-02-21T12:01:10;1012.7;;;10.6;74.0
27437;BME280;14886;51.586;6.722;2024-02-21T12:02:11;1012.7;;;10.5;74.0
27437;BME280;14886;51.586;6.722;2024-02-21T12:03:10;1012.7;;;10.7;73.9
27437;BME280;14886;51.586;6.722;2024-02-21T12:04:10;1012.7;;;10.6;73.9
27437;BME280;14886;51.586;6.722;2024-02-21T12:06:11;1012.8;;;10.7;73.7
27437;BME280;14886;51.586;6.722;2024-02-21T12:08:11;1012.8;;;10.8;73.4
27437;BME280;14886;51.586;6.722;2024-02-21T12:09:13;1012.7;;;10.5;73.7
27437;BME280;14886;51.586;6.722;2024-02-21T12:10:11;1012.8;;;10.6;73.5
27437;BME280;14886;51.586;6.722;2024-02-21T12:11:19;1012.8;;;10.7;73.4
27437;BME280;14886;51.586;6.722;2024-02-21T12:12:11;1012.8;;;10.8;73.4
27437;BME280;14886;51.586;6.722;2024-02-21T12:13:11;1012.7;;;10.7;73.3
27437;BME280;14886;51.586;6.722;2024-02-21T12:14:15;1012.7;;;10.8;73.1
27437;BME280;14886;51.586;6.722;2024-02-21T12:17:13;1012.6;;;10.9;72.9
27437;BME280;14886;51.586;6.722;2024-02-21T12:18:12;1012.5;;;10.8;73.0
27437;BME280;14886;51.586;6.722;2024-02-21T12:21:12;1012.4;;;10.9;73.1
27437;BME280;14886;51.586;6.722;2024-02-21T12:22:15;1012.4;;;10.8;72.9
27437;BME280;14886;51.586;6.722;2024-02-21T12:23:12;1012.4;;;10.9;73.0
27437;BME280;14886;51.586;6.722;2024-02-21T12:24:12;1012.4;;;11.0;72.8
27437;BME280;14886;51.586;6.722;2024-02-21T12:27:12;1012.4;;;10.9;72.8
27437;BME280;14886;51.586;6.722;2024-02-21T12:28:12;1012.3;;;10.8;72.7
27437;BME280;14886;51.586;6.722;2024-02-21T12:29:12;1012.3;;;10.9;72.9
27437;BME280;14886;51.586;6.722;2024-02-21T12:30:13;1012.2;;;11.1;72.6
27437;BME280;14886;51.586;6.722;2024-02-21T12:35:13;1012.2;;;11.0;72.4
27437;BME280;14886;51.586;6.722;2024-02-21T12:36:13;1012.2;;;11.1;72.5
27437;BME280;14886;51.586;6.722;2024-02-21T12:37:13;1012.2;;;11.3;72.8
27437;BME280;14886;51.586;6.722;2024-02-21T12:38:13;1012.2;;;11.2;72.3
27437;BME280;14886;51.586;6.722;2024-02-21T12:39:13;1012.1;;;11.3;72.4
27437;BME280;14886;51.586;6.722;2024-02-21T12:40:13;1012.1;;;11.2;72.0
27437;BME280;14886;51.586;6.722;2024-02-21T12:41:13;1012.1;;;11.3;72.0
27437;BME280;14886;51.586;6.722;2024-02-21T12:42:13;1012.1;;;11.0;72.1
27437;BME280;14886;51.586;6.722;2024-02-21T12:43:14;1012.1;;;11.1;72.0
27437;BME280;14886;51.586;6.722;2024-02-21T12:44:14;1012.1;;;11.2;72.1
27437;BME280;14886;51.586;6.722;2024-02-21T12:46:14;1012.1;;;11.1;71.7
27437;BME280;14886;51.586;6.722;2024-02-21T12:50:15;1012.0;;;11.2;71.4
27437;BME280;14886;51.586;6.722;2024-02-21T12:51:14;1012.0;;;11.1;71.3
27437;BME280;14886;51.586;6.722;2024-02-21T12:53:14;1012.0;;;11.2;71.1
27437;BME280;14886;51.586;6.722;2024-02-21T12:54:14;1011.8;;;11.1;70.9
27437;BME280;14886;51.586;6.722;2024-02-21T12:56:15;1011.7;;;11.2;70.7
27437;BME280;14886;51.586;6.722;2024-02-21T12:58:15;1011.7;;;11.1;70.6
27437;BME280;14886;51.586;6.722;2024-02-21T12:59:15;1011.7;;;11.3;70.4
27437;BME280;14886;51.586;6.722;2024-02-21T13:00:15;1011.7;;;11.4;70.2
27437;BME280;14886;51.586;6.722;2024-02-21T13:04:15;1011.5;;;11.2;70.1
27437;BME280;14886;51.586;6.722;2024-02-21T13:05:15;1011.4;;;11.3;69.8
27437;BME280;14886;51.586;6.722;2024-02-21T13:07:17;1011.4;;;11.4;69.4
27437;BME280;14886;51.586;6.722;2024-02-21T13:08:15;1011.4;;;11.5;69.1
27437;BME280;14886;51.586;6.722;2024-02-21T13:09:15;1011.4;;;11.4;69.2
27437;BME280;14886;51.586;6.722;2024-02-21T13:11:16;1011.3;;;11.2;69.1
27437;BME280;14886;51.586;6.722;2024-02-21T13:12:16;1011.3;;;11.1;69.1
27437;BME280;14886;51.586;6.722;2024-02-21T13:13:16;1011.2;;;11.2;69.1
27437;BME280;14886;51.586;6.722;2024-02-21T13:14:16;1011.2;;;11.4;68.9
27437;BME280;14886;51.586;6.722;2024-02-21T13:16:16;1011.1;;;11.2;69.0
27437;BME280;14886;51.586;6.722;2024-02-21T13:18:16;1011.1;;;11.4;68.8
27437;BME280;14886;51.586;6.722;2024-02-21T13:21:16;1010.9;;;11.3;68.6
27437;BME280;14886;51.586;6.722;2024-02-21T13:22:17;1010.9;;;11.4;68.5
27437;BME280;14886;51.586;6.722;2024-02-21T13:24:17;1010.8;;;11.3;68.5
27437;BME280;14886;51.586;6.722;2024-02-21T13:28:17;1010.5;;;11.4;68.5
27437;BME280;14886;51.586;6.722;2024-02-21T13:29:17;1010.5;;;11.5;68.5
27437;BME280;14886;51.586;6.722;2024-02-21T13:32:17;1010.3;;;11.4;68.4
27437;BME280;14886;51.586;6.722;2024-02-21T13:35:18;1010.1;;;11.5;68.2
27437;BME280;14886;51.586;6.722;2024-02-21T13:36:18;1010.1;;;11.6;68.1
27437;BME280;14886;51.586;6.722;2024-02-21T13:37:18;1010.0;;;11.7;68.1
27437;BME280;14886;51.586;6.722;2024-02-21T13:38:18;1010.1;;;11.6;68.1
27437;BME280;14886;51.586;6.722;2024-02-21T13:39:18;1010.0;;;11.4;68.2
27437;BME280;14886;51.586;6.722;2024-02-21T13:40:18;1010.0;;;11.5;68.2
27437;BME280;14886;51.586;6.722;2024-02-21T13:41:18;1010.0;;;11.6;68.3
27437;BME280;14886;51.586;6.722;2024-02-21T13:42:18;1009.9;;;11.4;68.2
27437;BME280;14886;51.586;6.722;2024-02-21T13:43:18;1009.9;;;11.5;68.0
27437;BME280;14886;51.586;6.722;2024-02-21T13:44:18;1009.9;;;11.6;68.1
27437;BME280;14886;51.586;6.722;2024-02-21T13:45:18;1009.8;;;11.5;67.8
27437;BME280;14886;51.586;6.722;2024-02-21T13:49:19;1009.7;;;11.6;67.7
27437;BME280;14886;51.586;6.722;2024-02-21T13:58:19;1009.6;;;11.5;67.8
27437;BME280;14886;51.586;6.722;2024-02-21T14:01:20;1009.6;;;11.6;67.6
27437;BME280;14886;51.586;6.722;2024-02-21T14:04:20;1009.7;;;11.8;67.8
27437;BME280;14886;51.586;6.722;2024-02-21T14:06:20;1009.6;;;11.7;67.7
27437;BME280;14886;51.586;6.722;2024-02-21T14:07:20;1009.6;;;11.8;67.6
27437;BME280;14886;51.586;6.722;2024-02-21T14:13:21;1009.4;;;12.0;67.0
27437;BME280;14886;51.586;6.722;2024-02-21T14:14:21;1009.4;;;11.9;67.0
27437;BME280;14886;51.586;6.722;2024-02-21T14:16:21;1009.3;;;11.8;66.9
27437;BME280;14886;51.586;6.722;2024-02-21T14:17:21;1009.3;;;11.9;66.9
27437;BME280;14886;51.586;6.722;2024-02-21T14:19:21;1009.2;;;11.8;66.9
27437;BME280;14886;51.586;6.722;2024-02-21T14:21:21;1009.2;;;11.9;67.1
27437;BME280;14886;51.586;6.722;2024-02-21T14:26:22;1009.0;;;11.8;66.8
27437;BME280;14886;51.586;6.722;2024-02-21T14:28:22;1009.0;;;11.9;66.8
27437;BME280;14886;51.586;6.722;2024-02-21T14:30:22;1009.0;;;11.8;66.9
27437;BME280;14886;51.586;6.722;2024-02-21T14:31:22;1009.0;;;11.9;66.9
27437;BME280;14886;51.586;6.722;2024-02-21T14:32:22;1009.0;;;11.8;67.0
27437;BME280;14886;51.586;6.722;2024-02-21T14:34:22;1008.9;;;11.9;66.9
27437;BME280;14886;51.586;6.722;2024-02-21T14:35:23;1008.8;;;11.7;66.8
27437;BME280;14886;51.586;6.722;2024-02-21T14:36:23;1008.8;;;11.8;66.8
27437;BME280;14886;51.586;6.722;2024-02-21T14:40:23;1008.7;;;11.7;66.9
27437;BME280;14886;51.586;6.722;2024-02-21T14:41:23;1008.7;;;11.8;66.9
27437;BME280;14886;51.586;6.722;2024-02-21T14:47:25;1008.6;;;11.9;67.4
27437;BME280;14886;51.586;6.722;2024-02-21T14:49:24;1008.5;;;11.8;67.4
27437;BME280;14886;51.586;6.722;2024-02-21T14:51:24;1008.5;;;11.7;67.5
27437;BME280;14886;51.586;6.722;2024-02-21T14:52:24;1008.4;;;11.8;67.6
27437;BME280;14886;51.586;6.722;2024-02-21T14:53:24;1008.4;;;11.7;67.7
27437;BME280;14886;51.586;6.722;2024-02-21T14:55:24;1008.3;;;11.8;67.7
27437;BME280;14886;51.586;6.722;2024-02-21T14:56:24;1008.2;;;11.7;67.8
27437;BME280;14886;51.586;6.722;2024-02-21T14:59:25;1008.1;;;11.8;68.0
27437;BME280;14886;51.586;6.722;2024-02-21T15:00:24;1008.0;;;11.7;68.1
27437;BME280;14886;51.586;6.722;2024-02-21T15:11:25;1007.7;;;11.6;67.5
27437;BME280;14886;51.586;6.722;2024-02-21T15:12:25;1007.7;;;11.7;67.4
27437;BME280;14886;51.586;6.722;2024-02-21T15:13:26;1007.7;;;11.6;67.4
27437;BME280;14886;51.586;6.722;2024-02-21T15:18:26;1007.6;;;11.7;67.9
27437;BME280;14886;51.586;6.722;2024-02-21T15:22:26;1007.6;;;11.6;67.8
27437;BME280;14886;51.586;6.722;2024-02-21T15:23:26;1007.6;;;11.7;68.0
27437;BME280;14886;51.586;6.722;2024-02-21T15:25:26;1007.6;;;11.6;68.3
27437;BME280;14886;51.586;6.722;2024-02-21T15:36:27;1007.3;;;11.5;68.6
27437;BME280;14886;51.586;6.722;2024-02-21T15:45:28;1007.1;;;11.6;68.6
27437;BME280;14886;51.586;6.722;2024-02-21T15:46:28;1007.1;;;11.5;68.8
27437;BME280;14886;51.586;6.722;2024-02-21T16:05:30;1006.8;;;11.4;68.0
27437;BME280;14886;51.586;6.722;2024-02-21T16:07:30;1006.7;;;11.5;67.4
27437;BME280;14886;51.586;6.722;2024-02-21T16:08:30;1006.7;;;11.4;67.6
27437;BME280;14886;51.586;6.722;2024-02-21T16:13:30;1006.6;;;11.3;66.7
27437;BME280;14886;51.586;6.722;2024-02-21T16:15:30;1006.7;;;11.2;68.3
27437;BME280;14886;51.586;6.722;2024-02-21T16:16:30;1006.7;;;11.1;68.2
27437;BME280;14886;51.586;6.722;2024-02-21T16:18:31;1006.7;;;11.0;69.6
27437;BME280;14886;51.586;6.722;2024-02-21T16:20:31;1006.7;;;10.9;69.8
27437;BME280;14886;51.586;6.722;2024-02-21T16:23:31;1006.5;;;10.8;70.9
27437;BME280;14886;51.586;6.722;2024-02-21T16:25:31;1006.5;;;10.7;72.0
27437;BME280;14886;51.586;6.722;2024-02-21T16:27:31;1006.4;;;10.6;73.4
27437;BME280;14886;51.586;6.722;2024-02-21T16:29:33;1006.4;;;10.5;74.9
27437;BME280;14886;51.586;6.722;2024-02-21T16:31:32;1006.4;;;10.4;76.1
27437;BME280;14886;51.586;6.722;2024-02-21T16:33:32;1006.4;;;10.3;76.8
27437;BME280;14886;51.586;6.722;2024-02-21T16:34:33;1006.4;;;10.4;76.1
27437;BME280;14886;51.586;6.722;2024-02-21T16:35:32;1006.4;;;10.3;76.8
27437;BME280;14886;51.586;6.722;2024-02-21T16:37:32;1006.3;;;10.2;78.1
27437;BME280;14886;51.586;6.722;2024-02-21T16:40:33;1006.3;;;10.1;78.2
27437;BME280;14886;51.586;6.722;2024-02-21T16:44:33;1006.2;;;10.0;79.3
27437;BME280;14886;51.586;6.722;2024-02-21T16:45:33;1006.2;;;9.9;79.0
27437;BME280;14886;51.586;6.722;2024-02-21T16:48:33;1006.1;;;9.8;79.7
27437;BME280;14886;51.586;6.722;2024-02-21T16:51:33;1006.1;;;9.7;79.7
27437;BME280;14886;51.586;6.722;2024-02-21T16:52:33;1006.1;;;9.8;78.8
27437;BME280;14886;51.586;6.722;2024-02-21T16:53:33;1006.1;;;9.7;78.7
27437;BME280;14886;51.586;6.722;2024-02-21T16:56:34;1006.0;;;9.6;80.2
27437;BME280;14886;51.586;6.722;2024-02-21T16:57:34;1005.9;;;9.5;80.8
27437;BME280;14886;51.586;6.722;2024-02-21T16:59:34;1005.9;;;9.4;80.9
27437;BME280;14886;51.586;6.722;2024-02-21T17:02:36;1005.8;;;9.3;81.2
27437;BME280;14886;51.586;6.722;2024-02-21T17:07:35;1005.7;;;9.2;81.9
27437;BME280;14886;51.586;6.722;2024-02-21T17:11:35;1005.6;;;9.1;83.2
27437;BME280;14886;51.586;6.722;2024-02-21T17:17:35;1005.4;;;9.0;83.6
27437;BME280;14886;51.586;6.722;2024-02-21T17:25:36;1005.1;;;9.1;84.1
27437;BME280;14886;51.586;6.722;2024-02-21T17:28:36;1005.0;;;9.0;84.8
27437;BME280;14886;51.586;6.722;2024-02-21T17:32:37;1004.8;;;9.1;84.9
27437;BME280;14886;51.586;6.722;2024-02-21T17:34:37;1004.8;;;9.0;85.2
27437;BME280;14886;51.586;6.722;2024-02-21T17:47:39;1004.5;;;8.9;86.2
27437;BME280;14886;51.586;6.722;2024-02-21T17:49:38;1004.5;;;9.0;85.7
27437;BME280;14886;51.586;6.722;2024-02-21T17:51:38;1004.5;;;8.9;86.4
27437;BME280;14886;51.586;6.722;2024-02-21T17:57:39;1004.4;;;8.8;85.5
27437;BME280;14886;51.586;6.722;2024-02-21T18:00:39;1004.5;;;8.7;86.8
27437;BME280;14886;51.586;6.722;2024-02-21T18:04:39;1004.4;;;8.6;86.6
27437;BME280;14886;51.586;6.722;2024-02-21T18:06:39;1004.4;;;8.7;86.0
27437;BME280;14886;51.586;6.722;2024-02-21T18:07:39;1004.4;;;8.8;85.1
27437;BME280;14886;51.586;6.722;2024-02-21T18:08:39;1004.4;;;8.7;85.9